< < Back
Terminal Aerodrome Forecast


Current Version              Previous Versions:   1  2  3  4  5  6  7  8  9  

Terminal Aerodrome Forecast

998
FTUS42 KFFC 032329
TAFFTY
TAF
KFTY 032329Z 0400/0424 20004KT P6SM SKC
     FM040300 00000KT P6SM SKC
     FM041600 19004KT P6SM FEW050
     FM041800 15007KT P6SM SCT050=

Latest METAR

438
SAUS70 KWBC 041356
MTRFTY
METAR KFTY 041353Z 00000KT 10SM CLR 20/12 A3030 RMK AO2 SLP254
T02000117


USA.gov is the U.S. government's official web portal to all federal, state and local government web resources and services.